Time;durP1;ratioP1;P1;durP2;ratioP2;P2;SDS_P1;SDS_P2;PMS_P1;PMS_P2;Temp;Humidity;BMP_temperature;BMP_pressure;BME280_temperature;BME280_humidity;BME280_pressure;Samples;Min_cycle;Max_cycle;Signal;HPM_P1;HPM_P2
2022/09/30 00:00:25;;;;;;;;;;;;;;;14.37;62.45;94430.00;5047260;28;20013;-65
2022/09/30 00:02:50;;;;;;;;;;;;;;;14.40;62.71;94426.66;5047497;28;20009;-65
2022/09/30 00:05:16;;;;;;;;;;;;;;;14.37;62.47;94427.34;5048692;28;20572;-65
2022/09/30 00:07:41;;;;;;;;;;;;;;;14.35;62.56;94424.25;5049926;28;20076;-65
2022/09/30 00:10:06;;;;;;;;;;;;;;;14.33;62.94;94421.13;5047139;28;20355;-65
2022/09/30 00:12:32;;;;;;;;;;;;;;;14.34;62.85;94417.34;5048768;28;20053;-65
2022/09/30 00:14:57;;;;;;;;;;;;;;;14.32;62.51;94427.59;5049762;28;20335;-65
2022/09/30 00:17:22;;;;;;;;;;;;;;;14.27;62.75;94433.19;5048666;28;20068;-65
2022/09/30 00:19:47;;;;;;;;;;;;;;;14.22;62.42;94430.78;5047018;28;20020;-65
2022/09/30 00:22:13;;;;;;;;;;;;;;;14.21;62.93;94440.69;5047398;28;20013;-65
2022/09/30 00:24:38;;;;;;;;;;;;;;;14.24;62.68;94437.34;5047799;28;20049;-65
2022/09/30 00:27:03;;;;;;;;;;;;;;;14.25;63.18;94435.44;5048136;28;20013;-66
2022/09/30 00:29:28;;;;;;;;;;;;;;;14.30;62.88;94440.53;5048371;28;20014;-65
2022/09/30 00:31:54;;;;;;;;;;;;;;;14.33;62.39;94437.19;5048502;28;20446;-65
2022/09/30 00:34:19;;;;;;;;;;;;;;;14.32;62.67;94436.38;5048612;28;20041;-65
2022/09/30 00:36:47;;;;;;;;;;;;;;;14.26;62.49;94427.06;5049508;28;20005;-65
2022/09/30 00:39:17;;;;;;;;;;;;;;;14.26;62.88;94431.66;5047261;28;20013;-65
2022/09/30 00:41:43;;;;;;;;;;;;;;;14.23;62.90;94432.34;5048758;28;20018;-65
2022/09/30 00:44:27;;;;;;;;;;;;;;;14.18;62.52;94425.34;5052862;28;20037;-65
2022/09/30 00:46:54;;;;;;;;;;;;;;;14.15;62.79;94434.06;5052467;28;20024;-64
2022/09/30 00:49:23;;;;;;;;;;;;;;;14.13;62.54;94424.84;5052826;28;20013;-65
2022/09/30 00:51:50;;;;;;;;;;;;;;;14.03;62.15;94424.22;5051047;28;20406;-65
2022/09/30 00:54:21;;;;;;;;;;;;;;;14.02;62.38;94428.00;5051430;28;20655;-65
2022/09/30 00:56:49;;;;;;;;;;;;;;;13.98;63.02;94432.47;5061374;28;20024;-65
2022/09/30 00:59:36;;;;;;;;;;;;;;;13.95;63.16;94433.16;5052726;28;20006;-65
2022/09/30 01:02:03;;;;;;;;;;;;;;;13.95;62.93;94438.50;5051867;28;20017;-65
2022/09/30 01:04:31;;;;;;;;;;;;;;;13.97;63.24;94449.66;5052168;28;20014;-65
2022/09/30 01:06:59;;;;;;;;;;;;;;;13.99;63.06;94457.31;5051677;28;20014;-65
2022/09/30 01:09:24;;;;;;;;;;;;;;;14.02;63.17;94453.94;5050263;28;20067;-65
2022/09/30 01:11:50;;;;;;;;;;;;;;;14.05;63.21;94456.72;5051786;28;20018;-65
2022/09/30 01:14:17;;;;;;;;;;;;;;;14.09;62.75;94456.06;5051685;28;20014;-65
2022/09/30 01:16:49;;;;;;;;;;;;;;;14.12;62.74;94463.38;5051477;28;20486;-65
2022/09/30 01:19:25;;;;;;;;;;;;;;;14.15;62.86;94466.16;5049933;28;20021;-65
2022/09/30 01:22:06;;;;;;;;;;;;;;;14.17;62.32;94453.19;5050553;28;20032;-65
2022/09/30 01:24:39;;;;;;;;;;;;;;;14.13;62.41;94462.28;5046330;28;20666;-65
2022/09/30 01:27:12;;;;;;;;;;;;;;;14.11;62.60;94470.63;5051669;28;20029;-65
2022/09/30 01:29:51;;;;;;;;;;;;;;;13.99;62.33;94476.81;5052152;28;20037;-65
2022/09/30 01:32:22;;;;;;;;;;;;;;;14.04;62.14;94473.13;5048529;28;20072;-65
2022/09/30 01:34:55;;;;;;;;;;;;;;;14.00;61.87;94470.34;5051295;28;20541;-66
2022/09/30 01:37:32;;;;;;;;;;;;;;;14.01;61.93;94474.56;5051165;28;20063;-65
2022/09/30 01:39:58;;;;;;;;;;;;;;;14.02;61.55;94481.50;5049122;28;20014;-65
2022/09/30 01:42:23;;;;;;;;;;;;;;;14.02;61.66;94476.16;5049821;28;20067;-65
2022/09/30 01:45:08;;;;;;;;;;;;;;;14.01;61.39;94477.22;5051384;28;20024;-65
2022/09/30 01:47:33;;;;;;;;;;;;;;;14.04;61.59;94489.16;5052033;28;20020;-65
2022/09/30 01:50:01;;;;;;;;;;;;;;;14.04;62.06;94497.97;5050759;28;20370;-65
2022/09/30 01:52:37;;;;;;;;;;;;;;;14.05;61.85;94491.47;5050413;28;20013;-65
2022/09/30 01:55:12;;;;;;;;;;;;;;;14.09;61.80;94488.13;5050473;28;20412;-65
2022/09/30 01:57:51;;;;;;;;;;;;;;;14.02;61.57;94489.50;5051056;28;20014;-65
2022/09/30 02:00:17;;;;;;;;;;;;;;;14.06;61.83;94492.25;5050386;28;20007;-65
2022/09/30 02:03:00;;;;;;;;;;;;;;;14.06;62.25;94486.91;5049890;28;20120;-65
2022/09/30 02:05:25;;;;;;;;;;;;;;;14.05;61.81;94486.13;5050736;28;20108;-65
2022/09/30 02:07:54;;;;;;;;;;;;;;;14.05;61.82;94491.47;5051295;28;20096;-65
2022/09/30 02:10:34;;;;;;;;;;;;;;;14.07;61.96;94495.72;5048148;28;20507;-65
2022/09/30 02:13:03;;;;;;;;;;;;;;;14.08;61.90;94486.59;5032123;28;20006;-65
2022/09/30 02:15:34;;;;;;;;;;;;;;;14.08;61.61;94482.00;5034592;28;20013;-65
2022/09/30 02:18:06;;;;;;;;;;;;;;;14.07;61.86;94485.00;5050757;28;20010;-65
2022/09/30 02:20:35;;;;;;;;;;;;;;;13.99;61.73;94479.47;5050203;28;20024;-65
2022/09/30 02:23:02;;;;;;;;;;;;;;;13.93;61.56;94472.84;5051709;28;20013;-65
2022/09/30 02:25:35;;;;;;;;;;;;;;;13.85;61.76;94479.09;5049540;28;20017;-65
2022/09/30 02:28:04;;;;;;;;;;;;;;;13.74;61.90;94476.13;5051598;28;20006;-65
2022/09/30 02:30:29;;;;;;;;;;;;;;;13.67;61.78;94472.50;5048574;28;20006;-65
2022/09/30 02:33:01;;;;;;;;;;;;;;;13.57;61.96;94472.97;5050245;28;20012;-65
2022/09/30 02:35:29;;;;;;;;;;;;;;;13.45;62.00;94471.84;5049300;28;20010;-65
2022/09/30 02:37:59;;;;;;;;;;;;;;;13.33;62.39;94469.22;5051284;28;20005;-67
2022/09/30 02:40:24;;;;;;;;;;;;;;;13.19;62.35;94468.78;5048705;28;20018;-65
2022/09/30 02:42:49;;;;;;;;;;;;;;;13.08;62.64;94470.34;5049925;28;20055;-65
2022/09/30 02:45:17;;;;;;;;;;;;;;;13.01;62.99;94479.69;5051010;28;20018;-66
2022/09/30 02:47:58;;;;;;;;;;;;;;;12.94;63.19;94484.81;5049241;28;20017;-65
2022/09/30 02:50:34;;;;;;;;;;;;;;;12.91;63.71;94498.84;5050758;28;20009;-65
2022/09/30 02:53:07;;;;;;;;;;;;;;;12.81;63.65;94493.16;5050160;28;20016;-65
2022/09/30 02:55:48;;;;;;;;;;;;;;;12.90;63.69;94497.28;5049389;28;20104;-65
2022/09/30 02:58:15;;;;;;;;;;;;;;;12.94;63.87;94508.81;5049532;28;20009;-65
2022/09/30 03:00:41;;;;;;;;;;;;;;;12.98;63.69;94503.59;5049770;28;20104;-65
2022/09/30 03:03:14;;;;;;;;;;;;;;;12.99;63.78;94511.28;5049805;28;20521;-65
2022/09/30 03:05:39;;;;;;;;;;;;;;;13.01;63.78;94514.41;5049596;28;20013;-65
2022/09/30 03:08:05;;;;;;;;;;;;;;;13.03;63.61;94508.72;5050820;28;20006;-65
2022/09/30 03:10:31;;;;;;;;;;;;;;;13.04;63.48;94512.16;5047538;28;20023;-65
2022/09/30 03:13:12;;;;;;;;;;;;;;;13.03;63.43;94511.41;5049801;28;20104;-65
2022/09/30 03:15:38;;;;;;;;;;;;;;;13.01;63.54;94517.06;5047280;28;20071;-65
2022/09/30 03:18:23;;;;;;;;;;;;;;;12.99;63.43;94505.94;5049704;28;20061;-65
2022/09/30 03:21:00;;;;;;;;;;;;;;;12.97;63.63;94524.19;5049334;28;20014;-65
2022/09/30 03:23:35;;;;;;;;;;;;;;;12.94;63.54;94524.84;5050454;28;20005;-65
2022/09/30 03:26:06;;;;;;;;;;;;;;;12.90;63.86;94523.19;5048671;28;20024;-65
2022/09/30 03:28:38;;;;;;;;;;;;;;;12.91;64.20;94536.22;5048661;28;20023;-66
2022/09/30 03:31:07;;;;;;;;;;;;;;;12.88;63.89;94538.75;5049258;28;20056;-65
2022/09/30 03:33:37;;;;;;;;;;;;;;;12.87;64.24;94537.97;5049280;28;20472;-65
2022/09/30 03:36:13;;;;;;;;;;;;;;;12.89;64.02;94549.09;5048150;28;20026;-65
2022/09/30 03:38:41;;;;;;;;;;;;;;;12.92;64.03;94555.66;5048671;28;20013;-65
2022/09/30 03:41:21;;;;;;;;;;;;;;;12.96;63.96;94554.66;5047055;28;20010;-65
2022/09/30 03:43:49;;;;;;;;;;;;;;;12.98;63.93;94557.78;5050098;28;20010;-65
2022/09/30 03:46:21;;;;;;;;;;;;;;;13.00;63.87;94552.91;5049005;28;20496;-65
2022/09/30 03:48:48;;;;;;;;;;;;;;;13.00;63.70;94547.56;5049377;28;20005;-64
2022/09/30 03:51:13;;;;;;;;;;;;;;;12.96;63.64;94546.66;5045974;28;20498;-65
2022/09/30 03:53:40;;;;;;;;;;;;;;;12.97;63.61;94547.44;5049063;28;20108;-65
2022/09/30 03:56:05;;;;;;;;;;;;;;;12.95;63.74;94550.44;5046910;28;20374;-65
2022/09/30 03:58:30;;;;;;;;;;;;;;;12.96;63.65;94548.56;5047181;28;20010;-66
2022/09/30 04:00:56;;;;;;;;;;;;;;;12.96;63.50;94543.22;5048127;28;20485;-65
2022/09/30 04:03:22;;;;;;;;;;;;;;;12.95;63.55;94547.00;5050505;28;20010;-65
2022/09/30 04:05:48;;;;;;;;;;;;;;;12.97;63.46;94548.22;5049269;28;20013;-65
2022/09/30 04:08:13;;;;;;;;;;;;;;;12.81;63.55;94552.66;5048002;28;20065;-65
2022/09/30 04:10:42;;;;;;;;;;;;;;;12.78;63.93;94561.31;5047817;28;20035;-66
2022/09/30 04:13:08;;;;;;;;;;;;;;;12.73;63.81;94567.63;5050056;28;20002;-66
2022/09/30 04:15:34;;;;;;;;;;;;;;;12.75;64.13;94570.00;5048266;28;20032;-66
2022/09/30 04:17:59;;;;;;;;;;;;;;;12.73;64.15;94572.97;5053436;28;20385;-66
2022/09/30 04:20:24;;;;;;;;;;;;;;;12.73;64.09;94572.19;5051101;28;20104;-65
2022/09/30 04:22:50;;;;;;;;;;;;;;;12.70;64.19;94571.00;5051083;28;20014;-66
2022/09/30 04:25:15;;;;;;;;;;;;;;;12.69;64.09;94561.44;5068194;28;20432;-66
2022/09/30 04:27:40;;;;;;;;;;;;;;;12.68;64.00;94569.75;5052968;28;20014;-67
2022/09/30 04:30:06;;;;;;;;;;;;;;;12.67;64.08;94573.53;5051300;28;20021;-66
2022/09/30 04:32:31;;;;;;;;;;;;;;;12.62;63.91;94571.06;5052262;28;20378;-66
2022/09/30 04:34:57;;;;;;;;;;;;;;;12.61;64.02;94582.84;5051846;28;20083;-66
2022/09/30 04:37:23;;;;;;;;;;;;;;;12.58;64.12;94591.50;5048102;28;20552;-66
2022/09/30 04:39:48;;;;;;;;;;;;;;;12.40;64.11;94590.91;5039659;28;20009;-65
2022/09/30 04:42:14;;;;;;;;;;;;;;;12.34;64.11;94587.66;5050842;28;20016;-68
2022/09/30 04:44:39;;;;;;;;;;;;;;;12.33;64.39;94588.75;5049288;28;20105;-66
2022/09/30 04:47:05;;;;;;;;;;;;;;;12.31;64.59;94590.97;5033196;28;20021;-67
2022/09/30 04:49:30;;;;;;;;;;;;;;;12.27;64.69;94589.28;5040612;28;20013;-65
2022/09/30 04:51:56;;;;;;;;;;;;;;;12.25;64.72;94597.63;5053460;28;20013;-65
2022/09/30 04:54:21;;;;;;;;;;;;;;;12.19;65.04;94594.38;5051262;28;20010;-65
2022/09/30 04:56:46;;;;;;;;;;;;;;;12.16;64.97;94600.34;5052258;28;20017;-66
2022/09/30 04:59:11;;;;;;;;;;;;;;;12.17;64.90;94604.56;5051225;28;20501;-67
2022/09/30 05:01:38;;;;;;;;;;;;;;;12.15;64.85;94603.34;5052074;28;20021;-66
2022/09/30 05:04:03;;;;;;;;;;;;;;;12.15;64.90;94604.13;5051700;28;20055;-66
2022/09/30 05:06:28;;;;;;;;;;;;;;;12.15;64.85;94600.69;5053004;28;20057;-67
2022/09/30 05:08:54;;;;;;;;;;;;;;;12.14;65.17;94601.81;5051678;28;20018;-66
2022/09/30 05:11:20;;;;;;;;;;;;;;;12.13;65.09;94603.69;5053122;28;20128;-65
2022/09/30 05:13:45;;;;;;;;;;;;;;;12.12;65.01;94602.09;5049981;28;20060;-65
2022/09/30 05:16:11;;;;;;;;;;;;;;;12.09;64.84;94604.66;5050133;28;20016;-65
2022/09/30 05:18:38;;;;;;;;;;;;;;;11.95;65.02;94610.25;5051293;28;20043;-66
2022/09/30 05:21:04;;;;;;;;;;;;;;;11.95;65.50;94612.91;5048507;28;20018;-65
2022/09/30 05:23:30;;;;;;;;;;;;;;;11.92;65.54;94611.66;5051103;28;20051;-69
2022/09/30 05:25:56;;;;;;;;;;;;;;;11.97;66.13;94616.81;5051798;28;20014;-69
2022/09/30 05:28:21;;;;;;;;;;;;;;;11.99;66.01;94610.38;5051120;28;20112;-69
2022/09/30 05:30:46;;;;;;;;;;;;;;;12.07;66.05;94615.63;5050613;28;20013;-69
2022/09/30 05:33:12;;;;;;;;;;;;;;;12.09;65.74;94618.00;5052757;28;20048;-70
2022/09/30 05:35:40;;;;;;;;;;;;;;;12.14;65.87;94626.56;5055336;28;20568;-66
2022/09/30 05:38:05;;;;;;;;;;;;;;;12.17;65.71;94625.13;5053378;28;20033;-65
2022/09/30 05:40:31;;;;;;;;;;;;;;;12.19;65.38;94633.59;5052612;28;20385;-65
2022/09/30 05:42:56;;;;;;;;;;;;;;;12.22;65.20;94620.38;5053279;28;20563;-65
2022/09/30 05:45:22;;;;;;;;;;;;;;;12.32;65.23;94631.75;5052299;28;20029;-66
2022/09/30 05:47:51;;;;;;;;;;;;;;;12.41;65.19;94643.13;5051811;28;20013;-66
2022/09/30 05:50:16;;;;;;;;;;;;;;;12.49;64.71;94643.06;5054857;28;20020;-65
2022/09/30 05:52:41;;;;;;;;;;;;;;;12.66;64.85;94642.13;5051789;28;20010;-67
2022/09/30 05:55:07;;;;;;;;;;;;;;;12.77;64.71;94650.50;5051690;28;20045;-66
2022/09/30 05:57:32;;;;;;;;;;;;;;;12.91;64.40;94651.00;5051666;28;20037;-66
2022/09/30 05:59:57;;;;;;;;;;;;;;;13.04;64.20;94657.13;5050059;28;20394;-66
2022/09/30 06:02:23;;;;;;;;;;;;;;;13.22;64.15;94665.75;5050982;28;20013;-65
2022/09/30 06:04:49;;;;;;;;;;;;;;;13.38;63.95;94671.25;5054675;28;20771;-67
2022/09/30 06:07:14;;;;;;;;;;;;;;;13.57;63.35;94682.16;5052876;28;20101;-64
2022/09/30 06:09:39;;;;;;;;;;;;;;;13.74;63.06;94679.25;5050862;28;20108;-66
2022/09/30 06:12:05;;;;;;;;;;;;;;;13.93;62.99;94670.69;5051402;28;20128;-67
2022/09/30 06:14:31;;;;;;;;;;;;;;;14.09;62.77;94667.31;5051736;28;20458;-66
2022/09/30 06:16:59;;;;;;;;;;;;;;;14.22;62.19;94671.50;5051077;28;20405;-65
2022/09/30 06:19:26;;;;;;;;;;;;;;;14.33;61.85;94667.28;5054844;28;20083;-66
2022/09/30 06:21:51;;;;;;;;;;;;;;;14.45;61.34;94675.25;5052069;28;20016;-66
2022/09/30 06:24:16;;;;;;;;;;;;;;;14.48;60.88;94674.59;5051117;28;20010;-66
2022/09/30 06:26:42;;;;;;;;;;;;;;;14.54;61.17;94677.81;5052263;28;20025;-65
2022/09/30 06:29:07;;;;;;;;;;;;;;;14.59;60.52;94674.09;5050567;28;20382;-66
2022/09/30 06:31:32;;;;;;;;;;;;;;;14.65;60.53;94673.53;5049762;28;20682;-66
2022/09/30 06:33:57;;;;;;;;;;;;;;;14.72;60.69;94678.31;5067059;28;20026;-66
2022/09/30 06:36:22;;;;;;;;;;;;;;;14.73;60.16;94669.16;5054687;28;20018;-65
2022/09/30 06:38:50;;;;;;;;;;;;;;;14.73;60.20;94677.97;5050614;28;20009;-67
2022/09/30 06:41:16;;;;;;;;;;;;;;;14.76;60.23;94673.84;5050600;28;20006;-67
2022/09/30 06:43:41;;;;;;;;;;;;;;;14.88;60.31;94681.81;5050641;28;20076;-68
2022/09/30 06:46:06;;;;;;;;;;;;;;;14.99;60.20;94690.91;5051055;28;20020;-68
2022/09/30 06:48:32;;;;;;;;;;;;;;;15.07;59.79;94692.66;5050126;28;20017;-68
2022/09/30 06:50:57;;;;;;;;;;;;;;;15.25;59.38;94695.00;5051614;28;20006;-68
2022/09/30 06:53:22;;;;;;;;;;;;;;;15.45;58.96;94699.34;5051763;28;20016;-67
2022/09/30 06:55:53;;;;;;;;;;;;;;;15.53;58.59;94701.09;5050221;28;20010;-68
2022/09/30 06:58:20;;;;;;;;;;;;;;;15.70;58.09;94691.94;5049762;28;20108;-67
2022/09/30 07:00:45;;;;;;;;;;;;;;;15.87;57.81;94704.22;5050444;28;20010;-68
2022/09/30 07:03:20;;;;;;;;;;;;;;;16.15;56.99;94701.41;5050269;28;20017;-67
2022/09/30 07:05:52;;;;;;;;;;;;;;;16.47;56.23;94712.06;5049883;28;20051;-68
2022/09/30 07:08:17;;;;;;;;;;;;;;;16.38;55.32;94709.59;5051056;28;20006;-68
2022/09/30 07:10:45;;;;;;;;;;;;;;;16.46;54.96;94708.59;5051032;28;20013;-68
2022/09/30 07:13:11;;;;;;;;;;;;;;;16.59;54.90;94710.03;5051349;28;20091;-68
2022/09/30 07:15:36;;;;;;;;;;;;;;;16.74;54.76;94707.69;5050513;28;20532;-68
2022/09/30 07:18:01;;;;;;;;;;;;;;;16.94;55.15;94721.84;5051270;28;20009;-68
2022/09/30 07:20:26;;;;;;;;;;;;;;;17.10;54.64;94715.28;5050361;28;20382;-68
2022/09/30 07:22:51;;;;;;;;;;;;;;;17.17;54.61;94720.03;5049704;28;20056;-68
2022/09/30 07:25:17;;;;;;;;;;;;;;;17.25;53.56;94720.91;5050913;28;20014;-67
2022/09/30 07:27:43;;;;;;;;;;;;;;;17.36;53.01;94716.53;5049562;28;20108;-68
2022/09/30 07:30:08;;;;;;;;;;;;;;;17.39;52.68;94718.47;5048735;28;20489;-67
2022/09/30 07:32:34;;;;;;;;;;;;;;;17.47;52.89;94720.19;5049213;28;20017;-66
2022/09/30 07:34:59;;;;;;;;;;;;;;;17.57;52.81;94710.75;5050697;28;20080;-67
2022/09/30 07:37:25;;;;;;;;;;;;;;;17.57;50.90;94718.81;5066241;28;20513;-67
2022/09/30 07:39:50;;;;;;;;;;;;;;;17.66;50.91;94705.91;5049113;28;20010;-67
2022/09/30 07:42:19;;;;;;;;;;;;;;;17.82;50.38;94711.19;5050851;28;20045;-67
2022/09/30 07:44:44;;;;;;;;;;;;;;;17.87;49.87;94708.19;5050623;28;20715;-67
2022/09/30 07:47:10;;;;;;;;;;;;;;;17.99;49.86;94710.69;5048328;28;20014;-66
2022/09/30 07:49:36;;;;;;;;;;;;;;;17.96;50.13;94710.63;5048402;28;20071;-67
2022/09/30 07:52:02;;;;;;;;;;;;;;;18.09;50.55;94720.84;5050548;28;20045;-67
2022/09/30 07:54:28;;;;;;;;;;;;;;;18.21;50.37;94721.75;5050261;28;20060;-67
2022/09/30 07:56:54;;;;;;;;;;;;;;;18.05;49.54;94720.00;5049045;28;20067;-67
2022/09/30 07:59:20;;;;;;;;;;;;;;;18.10;49.87;94725.06;5073466;22;20047;-71
2022/09/30 08:01:46;;;;;;;;;;;;;;;17.77;49.47;94731.09;5069510;28;20013;-70
2022/09/30 08:04:11;;;;;;;;;;;;;;;17.87;50.02;94740.47;5070437;28;20005;-70
2022/09/30 08:06:42;;;;;;;;;;;;;;;17.96;50.30;94738.31;5068736;28;20020;-70
2022/09/30 08:09:08;;;;;;;;;;;;;;;17.87;49.54;94745.88;5068314;28;20115;-69
2022/09/30 08:11:34;;;;;;;;;;;;;;;17.84;49.67;94747.34;5069074;28;20339;-70
2022/09/30 08:13:59;;;;;;;;;;;;;;;18.00;49.91;94749.91;5070347;28;20006;-70
2022/09/30 08:16:25;;;;;;;;;;;;;;;18.16;48.98;94747.84;5069338;28;20009;-70
2022/09/30 08:18:54;;;;;;;;;;;;;;;18.22;47.81;94748.34;5069258;28;20005;-70
2022/09/30 08:21:19;;;;;;;;;;;;;;;18.53;47.25;94746.44;5068984;28;20013;-71
2022/09/30 08:23:45;;;;;;;;;;;;;;;18.68;46.97;94750.91;5069919;28;20013;-71
2022/09/30 08:26:11;;;;;;;;;;;;;;;18.68;47.29;94749.03;5070075;28;20465;-70
2022/09/30 08:28:37;;;;;;;;;;;;;;;18.57;46.11;94750.75;5069715;28;20786;-70
2022/09/30 08:31:13;;;;;;;;;;;;;;;18.84;46.94;94745.38;5069432;28;20100;-71
2022/09/30 08:33:38;;;;;;;;;;;;;;;19.06;45.72;94744.47;5070158;28;20005;-71
2022/09/30 08:36:08;;;;;;;;;;;;;;;19.21;44.90;94756.97;5070160;28;20005;-71
2022/09/30 08:38:33;;;;;;;;;;;;;;;19.12;44.68;94755.72;5069488;28;20477;-71
2022/09/30 08:41:07;;;;;;;;;;;;;;;19.38;45.33;94757.53;5069626;28;20121;-72
2022/09/30 08:43:44;;;;;;;;;;;;;;;19.55;44.48;94761.56;5069993;28;20005;-71
2022/09/30 08:46:10;;;;;;;;;;;;;;;19.79;43.23;94757.59;5067739;28;20592;-71
2022/09/30 08:48:43;;;;;;;;;;;;;;;20.14;42.01;94763.28;5068001;28;20107;-71
2022/09/30 08:51:26;;;;;;;;;;;;;;;20.38;41.83;94756.53;5068547;28;20487;-71
2022/09/30 08:53:52;;;;;;;;;;;;;;;19.63;42.40;94760.53;5069922;28;20006;-71
2022/09/30 08:56:23;;;;;;;;;;;;;;;20.00;42.27;94761.25;5069924;28;20104;-71
2022/09/30 08:58:49;;;;;;;;;;;;;;;19.56;41.70;94773.94;5068676;28;20485;-71
2022/09/30 09:01:22;;;;;;;;;;;;;;;20.14;42.32;94771.41;5069029;28;20016;-71
2022/09/30 09:03:47;;;;;;;;;;;;;;;19.04;42.86;94778.31;5071085;28;20537;-71
2022/09/30 09:06:24;;;;;;;;;;;;;;;19.01;42.69;94777.16;5073400;28;20096;-72
2022/09/30 09:09:09;;;;;;;;;;;;;;;19.16;43.43;94792.34;5071351;28;20684;-71
2022/09/30 09:11:53;;;;;;;;;;;;;;;19.00;42.90;94796.41;5073598;28;20016;-71
2022/09/30 09:14:37;;;;;;;;;;;;;;;19.50;43.66;94795.06;5072067;28;20150;-71
2022/09/30 09:17:04;;;;;;;;;;;;;;;19.17;42.76;94796.59;5072828;28;20013;-71
2022/09/30 09:19:36;;;;;;;;;;;;;;;19.53;42.96;94805.09;5072845;28;20104;-71
2022/09/30 09:22:01;;;;;;;;;;;;;;;19.77;43.08;94808.47;5071803;28;20445;-71
2022/09/30 09:24:31;;;;;;;;;;;;;;;19.98;42.50;94808.69;5073086;28;20048;-71
2022/09/30 09:27:00;;;;;;;;;;;;;;;19.31;42.11;94812.19;5071933;28;20448;-73
2022/09/30 09:29:38;;;;;;;;;;;;;;;19.47;42.46;94817.38;5071803;28;20439;-71
2022/09/30 09:32:11;;;;;;;;;;;;;;;19.64;42.26;94821.44;5071012;28;20459;-72
2022/09/30 09:34:36;;;;;;;;;;;;;;;19.61;42.13;94816.78;5071585;28;20020;-72
2022/09/30 09:37:07;;;;;;;;;;;;;;;19.63;42.59;94817.19;5072926;28;20009;-71
2022/09/30 09:39:32;;;;;;;;;;;;;;;19.38;42.93;94808.78;5072327;28;20013;-71
2022/09/30 09:42:16;;;;;;;;;;;;;;;19.66;43.50;94822.63;5072599;28;20370;-70
2022/09/30 09:44:48;;;;;;;;;;;;;;;19.97;42.68;94812.53;5072791;28;20485;-72
2022/09/30 09:47:15;;;;;;;;;;;;;;;20.08;42.36;94812.63;5072036;28;20116;-71
2022/09/30 09:49:45;;;;;;;;;;;;;;;20.25;42.15;94815.47;5070819;28;20009;-70
2022/09/30 09:52:19;;;;;;;;;;;;;;;20.26;42.43;94808.13;5072505;28;20362;-70
2022/09/30 09:54:46;;;;;;;;;;;;;;;20.49;42.47;94807.97;5072374;28;20467;-71
2022/09/30 09:57:14;;;;;;;;;;;;;;;20.92;41.81;94794.72;5071085;28;20063;-70
2022/09/30 09:59:57;;;;;;;;;;;;;;;21.05;39.72;94795.97;5071804;28;20019;-71
2022/09/30 10:02:24;;;;;;;;;;;;;;;21.20;41.02;94802.97;5071775;28;20473;-72
2022/09/30 10:04:58;;;;;;;;;;;;;;;21.63;39.84;94797.75;5072204;28;20374;-72
2022/09/30 10:07:24;;;;;;;;;;;;;;;21.84;40.09;94805.13;5072360;28;20013;-71
2022/09/30 10:10:03;;;;;;;;;;;;;;;22.09;39.07;94809.81;5070354;28;20530;-72
2022/09/30 10:12:29;;;;;;;;;;;;;;;21.57;39.60;94818.22;5070736;28;20035;-73
2022/09/30 10:14:59;;;;;;;;;;;;;;;21.89;38.72;94825.66;5071114;28;20013;-72
2022/09/30 10:17:28;;;;;;;;;;;;;;;22.06;37.02;94824.91;5070333;28;20098;-71
2022/09/30 10:20:13;;;;;;;;;;;;;;;22.34;37.93;94820.72;5071454;28;20063;-72
2022/09/30 10:22:39;;;;;;;;;;;;;;;22.69;36.93;94822.63;5069950;28;20009;-72
2022/09/30 10:25:10;;;;;;;;;;;;;;;22.73;36.47;94818.75;5071010;28;20013;-72
2022/09/30 10:27:35;;;;;;;;;;;;;;;22.64;36.23;94820.31;5072026;28;20474;-71
2022/09/30 10:30:00;;;;;;;;;;;;;;;22.84;35.77;94810.59;5071311;28;20001;-72
2022/09/30 10:32:26;;;;;;;;;;;;;;;22.89;36.30;94807.53;5070846;28;20014;-73
2022/09/30 10:35:10;;;;;;;;;;;;;;;21.06;37.41;94816.44;5071714;28;20529;-71
2022/09/30 10:37:37;;;;;;;;;;;;;;;21.65;37.98;94819.00;5069617;28;21545;-72
2022/09/30 10:40:06;;;;;;;;;;;;;;;21.18;38.16;94820.72;5071059;28;20051;-72
2022/09/30 10:42:33;;;;;;;;;;;;;;;21.03;38.62;94826.06;5069980;28;20100;-73
2022/09/30 10:45:08;;;;;;;;;;;;;;;20.99;39.22;94828.00;5071396;28;20393;-72
2022/09/30 10:47:35;;;;;;;;;;;;;;;20.96;39.18;94833.38;5071087;28;20017;-74
2022/09/30 10:50:03;;;;;;;;;;;;;;;21.12;38.10;94831.13;5071294;28;20016;-73
2022/09/30 10:52:34;;;;;;;;;;;;;;;21.35;37.62;94833.59;5071398;28;20089;-72
2022/09/30 10:55:04;;;;;;;;;;;;;;;21.51;37.73;94834.06;5070190;28;20047;-73
2022/09/30 10:57:33;;;;;;;;;;;;;;;22.19;37.72;94833.47;5071284;28;20016;-73
2022/09/30 10:59:59;;;;;;;;;;;;;;;22.64;37.01;94836.56;5070831;28;20115;-74
2022/09/30 11:02:36;;;;;;;;;;;;;;;23.07;35.73;94840.03;5068772;28;20497;-73
2022/09/30 11:05:21;;;;;;;;;;;;;;;22.85;35.44;94836.56;5069896;28;20013;-73
2022/09/30 11:07:46;;;;;;;;;;;;;;;23.48;36.22;94837.56;5071328;28;20005;-73
2022/09/30 11:10:30;;;;;;;;;;;;;;;23.86;34.72;94830.44;5069320;28;20009;-73
2022/09/30 11:13:01;;;;;;;;;;;;;;;24.19;34.60;94839.16;5071364;28;20397;-74
2022/09/30 11:15:26;;;;;;;;;;;;;;;23.96;33.18;94847.84;5071322;28;20067;-75
2022/09/30 11:17:52;;;;;;;;;;;;;;;23.48;33.96;94853.84;5070114;28;20010;-74
2022/09/30 11:20:23;;;;;;;;;;;;;;;21.91;34.92;94858.53;5069283;28;20013;-73
2022/09/30 11:23:01;;;;;;;;;;;;;;;22.77;35.54;94859.41;5070959;28;20028;-72
2022/09/30 11:25:36;;;;;;;;;;;;;;;22.64;35.73;94861.75;5069338;28;20039;-72
2022/09/30 11:28:17;;;;;;;;;;;;;;;23.13;35.01;94864.81;5069497;28;20111;-72
2022/09/30 11:30:56;;;;;;;;;;;;;;;23.16;35.18;94864.03;5070727;28;20476;-71
2022/09/30 11:33:28;;;;;;;;;;;;;;;22.85;35.32;94860.97;5069670;28;20009;-75
2022/09/30 11:35:58;;;;;;;;;;;;;;;22.89;35.73;94867.19;5070784;28;20009;-74
2022/09/30 11:38:33;;;;;;;;;;;;;;;22.83;36.11;94860.59;5070222;28;20547;-72
2022/09/30 11:41:10;;;;;;;;;;;;;;;22.75;36.54;94851.66;5069311;28;20017;-73
2022/09/30 11:43:49;;;;;;;;;;;;;;;22.74;36.39;94852.84;5070676;28;20142;-73
2022/09/30 11:46:14;;;;;;;;;;;;;;;22.56;35.07;94855.53;5070496;28;20013;-74
2022/09/30 11:48:45;;;;;;;;;;;;;;;22.40;36.39;94855.16;5067787;28;20016;-73
2022/09/30 11:51:16;;;;;;;;;;;;;;;22.27;36.81;94854.78;5070393;28;20016;-73
2022/09/30 11:53:50;;;;;;;;;;;;;;;22.05;37.09;94850.44;5069171;28;20111;-74
2022/09/30 11:56:34;;;;;;;;;;;;;;;21.76;37.26;94855.78;5070540;28;20004;-73
2022/09/30 11:59:01;;;;;;;;;;;;;;;20.78;38.99;94860.31;5070072;28;20013;-73
2022/09/30 12:01:27;;;;;;;;;;;;;;;19.80;40.69;94870.56;5070706;28;20009;-73
2022/09/30 12:04:01;;;;;;;;;;;;;;;20.16;40.49;94869.00;5069685;28;20053;-74
2022/09/30 12:06:48;;;;;;;;;;;;;;;20.16;40.66;94870.94;5069025;28;20096;-73
2022/09/30 12:09:16;;;;;;;;;;;;;;;19.71;41.25;94875.50;5068392;28;20009;-75
2022/09/30 12:11:48;;;;;;;;;;;;;;;19.80;41.80;94869.78;5070369;28;20009;-72
2022/09/30 12:14:18;;;;;;;;;;;;;;;20.03;41.54;94866.97;5070204;28;20036;-73
2022/09/30 12:16:45;;;;;;;;;;;;;;;20.18;41.20;94872.13;5068851;28;20017;-73
2022/09/30 12:19:10;;;;;;;;;;;;;;;20.09;41.43;94874.34;5067213;28;20017;-73
2022/09/30 12:21:38;;;;;;;;;;;;;;;19.96;41.92;94867.66;5070276;28;20005;-73
2022/09/30 12:24:18;;;;;;;;;;;;;;;19.83;42.15;94863.66;5070063;28;20088;-71
2022/09/30 12:26:44;;;;;;;;;;;;;;;19.91;42.22;94862.56;5069857;28;20497;-71
2022/09/30 12:32:08;;;;;;;;;;;;;;;20.15;41.67;94862.06;5069716;28;20083;-72
2022/09/30 12:34:47;;;;;;;;;;;;;;;20.55;41.58;94851.63;5068511;28;20017;-71
2022/09/30 12:37:15;;;;;;;;;;;;;;;21.16;40.59;94858.22;5070029;28;20052;-72
2022/09/30 12:39:46;;;;;;;;;;;;;;;21.69;39.11;94860.41;5070843;28;20018;-71
2022/09/30 12:42:23;;;;;;;;;;;;;;;22.18;38.28;94861.72;5071844;28;20032;-72
2022/09/30 12:45:01;;;;;;;;;;;;;;;22.66;37.80;94856.69;5073283;28;20005;-71
2022/09/30 12:47:44;;;;;;;;;;;;;;;22.98;37.34;94853.22;5073589;28;20095;-71
2022/09/30 12:50:11;;;;;;;;;;;;;;;23.25;35.97;94846.19;5070605;28;20032;-71
2022/09/30 12:52:37;;;;;;;;;;;;;;;22.60;35.93;94855.53;5068582;28;20017;-71
2022/09/30 12:55:21;;;;;;;;;;;;;;;22.39;36.52;94858.25;5063915;28;20017;-71
2022/09/30 12:57:48;;;;;;;;;;;;;;;22.13;37.12;94857.44;5066816;28;20354;-71
2022/09/30 13:00:15;;;;;;;;;;;;;;;21.82;37.08;94855.41;5069582;28;20017;-71